createdAt,value
2018-12-08T00:03:26.859Z,12.20
2018-12-08T00:08:05.676Z,11.30
2018-12-08T00:12:44.464Z,10.10
2018-12-08T00:17:23.268Z,7.50
2018-12-08T00:22:02.233Z,13.97
2018-12-08T00:26:40.988Z,7.80
2018-12-08T00:31:31.659Z,7.60
2018-12-08T00:36:10.414Z,8.77
2018-12-08T00:40:49.248Z,8.13
2018-12-08T00:45:28.064Z,8.70
2018-12-08T00:50:06.873Z,10.00
2018-12-08T00:54:45.501Z,8.63
2018-12-08T00:59:24.576Z,11.70
2018-12-08T01:04:03.400Z,11.23
2018-12-08T01:08:42.174Z,11.70
2018-12-08T01:13:21.000Z,12.87
2018-12-08T01:17:59.680Z,13.00
2018-12-08T01:22:38.461Z,9.60
2018-12-08T01:27:17.341Z,9.07
2018-12-08T01:31:56.091Z,9.93
2018-12-08T01:36:35.188Z,11.30
2018-12-08T01:41:13.871Z,7.37
2018-12-08T01:45:52.471Z,10.50
2018-12-08T01:50:31.337Z,7.40
2018-12-08T01:55:09.996Z,7.47
2018-12-08T01:59:48.623Z,11.87
2018-12-08T02:04:27.512Z,8.63
2018-12-08T02:09:07.877Z,7.77
2018-12-08T02:13:46.683Z,9.53
2018-12-08T02:18:25.531Z,14.47
2018-12-08T02:23:04.503Z,9.57
2018-12-08T02:27:43.144Z,9.43
2018-12-08T02:32:22.041Z,8.40
2018-12-08T02:37:00.727Z,10.33
2018-12-08T02:41:39.519Z,11.40
2018-12-08T02:46:18.190Z,9.37
2018-12-08T02:50:56.809Z,7.40
2018-12-08T02:55:35.717Z,11.10
2018-12-08T03:00:14.644Z,8.50
2018-12-08T03:04:53.637Z,6.00
2018-12-08T03:09:32.379Z,6.77
2018-12-08T03:14:11.277Z,6.20
2018-12-08T03:18:49.961Z,12.13
2018-12-08T03:23:28.812Z,7.30
2018-12-08T03:28:07.525Z,10.10
2018-12-08T03:32:46.399Z,6.53
2018-12-08T03:37:25.180Z,6.70
2018-12-08T03:42:03.865Z,10.73
2018-12-08T03:46:42.726Z,7.83
2018-12-08T03:51:21.360Z,9.60
2018-12-08T03:56:00.206Z,12.20
2018-12-08T04:00:38.853Z,9.10
2018-12-08T04:05:17.684Z,14.93
2018-12-08T04:09:56.556Z,9.30
2018-12-08T04:14:35.325Z,8.80
2018-12-08T04:19:14.118Z,12.60
2018-12-08T04:23:52.749Z,9.50
2018-12-08T04:28:31.376Z,8.63
2018-12-08T04:33:09.989Z,12.10
2018-12-08T04:37:48.677Z,10.03
2018-12-08T04:42:27.320Z,11.70
2018-12-08T04:47:06.095Z,16.60
2018-12-08T04:51:44.692Z,10.73
2018-12-08T04:56:23.613Z,13.77
2018-12-08T05:01:02.272Z,13.10
2018-12-08T05:05:41.064Z,11.60
2018-12-08T05:10:19.847Z,14.43
2018-12-08T05:14:58.496Z,9.33
2018-12-08T05:19:37.329Z,7.60
2018-12-08T05:24:18.058Z,17.27
2018-12-08T05:28:56.837Z,8.77
2018-12-08T05:33:35.760Z,9.40
2018-12-08T05:38:14.636Z,11.47
2018-12-08T05:42:53.535Z,13.43
2018-12-08T05:47:32.254Z,13.07
2018-12-08T05:52:10.889Z,12.43
2018-12-08T05:56:49.491Z,13.10
2018-12-08T06:01:28.189Z,12.70
2018-12-08T06:06:06.987Z,15.63
2018-12-08T06:10:45.639Z,10.40
2018-12-08T06:15:24.452Z,10.33
2018-12-08T06:20:04.931Z,13.73
2018-12-08T06:24:43.516Z,20.80
2018-12-08T06:29:22.226Z,12.63
2018-12-08T06:34:00.936Z,19.10
2018-12-08T06:38:39.723Z,13.43
2018-12-08T06:43:18.351Z,58.97
2018-12-08T06:47:57.259Z,31.37
2018-12-08T06:52:35.887Z,15.43
2018-12-08T06:57:14.766Z,13.30
2018-12-08T07:01:53.767Z,9.97
2018-12-08T07:06:33.450Z,15.27
2018-12-08T07:11:12.311Z,14.60
2018-12-08T07:15:51.166Z,13.93
2018-12-08T07:20:30.031Z,11.50
2018-12-08T07:25:08.681Z,16.50
2018-12-08T07:29:47.507Z,14.23
2018-12-08T07:34:26.316Z,12.63
2018-12-08T07:39:06.185Z,14.03
2018-12-08T07:43:44.767Z,14.40
2018-12-08T07:48:23.543Z,12.20
2018-12-08T07:53:04.411Z,12.67
2018-12-08T07:57:43.601Z,13.63
2018-12-08T08:02:22.593Z,13.93
2018-12-08T08:07:01.223Z,11.37
2018-12-08T08:11:40.184Z,17.43
2018-12-08T08:16:19.037Z,18.53
2018-12-08T08:20:57.648Z,17.27
2018-12-08T08:25:36.499Z,18.40
2018-12-08T08:30:15.256Z,14.40
2018-12-08T08:34:54.077Z,12.80
2018-12-08T08:39:32.883Z,14.13
2018-12-08T08:44:11.732Z,11.77
2018-12-08T08:48:50.527Z,13.27
2018-12-08T08:53:31.207Z,12.87
2018-12-08T08:58:10.159Z,12.20
2018-12-08T09:02:48.940Z,12.47
2018-12-08T09:07:27.724Z,12.47
2018-12-08T09:12:06.592Z,9.47
2018-12-08T09:16:45.408Z,15.53
2018-12-08T09:21:24.089Z,17.73
2018-12-08T09:26:02.957Z,14.27
2018-12-08T09:30:41.575Z,13.87
2018-12-08T09:35:21.065Z,15.63
2018-12-08T09:39:59.833Z,16.37
2018-12-08T09:44:38.559Z,13.20
2018-12-08T09:49:17.521Z,12.50
2018-12-08T09:53:56.229Z,10.73
2018-12-08T09:58:35.124Z,15.60
2018-12-08T10:03:14.072Z,12.37
2018-12-08T10:07:52.761Z,14.13
2018-12-08T10:12:31.539Z,12.57
2018-12-08T10:17:24.087Z,16.27
2018-12-08T10:22:02.954Z,14.80
2018-12-08T10:26:41.995Z,16.13
2018-12-08T10:31:20.961Z,15.20
2018-12-08T10:35:59.805Z,13.37
2018-12-08T10:40:38.625Z,18.20
2018-12-08T10:45:17.373Z,13.77
2018-12-08T10:49:56.105Z,13.47
2018-12-08T10:54:34.928Z,11.33
2018-12-08T10:59:13.795Z,9.13
2018-12-08T11:03:52.487Z,15.13
2018-12-08T11:08:31.282Z,10.63
2018-12-08T11:13:09.908Z,11.27
2018-12-08T11:17:48.795Z,9.17
2018-12-08T11:22:27.821Z,9.43
2018-12-08T11:27:06.543Z,12.80
2018-12-08T11:31:45.304Z,10.97
2018-12-08T11:36:24.237Z,11.97
2018-12-08T11:41:02.909Z,14.53
2018-12-08T11:45:41.578Z,12.07
2018-12-08T11:50:20.469Z,8.20
2018-12-08T11:54:59.255Z,11.77
2018-12-08T11:59:38.249Z,13.60
2018-12-08T12:04:17.003Z,12.53
2018-12-08T12:08:55.936Z,13.72
2018-12-08T12:13:34.975Z,13.90
2018-12-08T12:18:14.100Z,14.18
2018-12-08T12:22:53.086Z,15.67
2018-12-08T12:27:31.657Z,14.73
2018-12-08T12:32:10.504Z,7.60
2018-12-08T12:36:49.139Z,13.88
2018-12-08T12:41:27.939Z,16.73
2018-12-08T12:46:06.547Z,13.23
2018-12-08T12:50:45.240Z,13.80
2018-12-08T12:55:24.001Z,14.83
2018-12-08T13:00:02.815Z,15.03
2018-12-08T13:04:41.604Z,15.25
2018-12-08T13:09:20.315Z,12.30
2018-12-08T13:13:59.200Z,13.13
2018-12-08T13:23:23.219Z,12.60
2018-12-08T13:28:01.891Z,15.10
2018-12-08T13:32:40.626Z,13.53
2018-12-08T13:37:19.674Z,13.35
2018-12-08T13:41:58.492Z,13.08
2018-12-08T13:46:37.267Z,10.37
2018-12-08T13:51:16.207Z,11.28
2018-12-08T13:55:55.028Z,11.85
2018-12-08T14:00:34.097Z,15.08
2018-12-08T14:05:13.124Z,12.83
2018-12-08T14:09:51.882Z,14.87
2018-12-08T14:14:30.733Z,15.70
2018-12-08T14:19:09.493Z,8.87
2018-12-08T14:23:48.172Z,12.30
2018-12-08T14:28:26.992Z,10.60
2018-12-08T14:33:05.764Z,14.68
2018-12-08T14:37:44.563Z,11.85
2018-12-08T14:42:23.522Z,15.38
2018-12-08T14:47:02.316Z,10.35
2018-12-08T14:51:41.135Z,17.98
2018-12-08T14:56:19.864Z,11.30
2018-12-08T15:00:58.716Z,22.37
2018-12-08T15:05:37.512Z,21.67
2018-12-08T15:10:16.256Z,28.73
2018-12-08T15:14:55.207Z,20.43
2018-12-08T15:19:33.824Z,27.45
2018-12-08T15:24:12.648Z,27.20
2018-12-08T15:28:51.504Z,16.57
2018-12-08T15:33:30.199Z,14.53
2018-12-08T15:38:09.416Z,17.43
2018-12-08T15:42:48.294Z,20.55
2018-12-08T15:47:27.128Z,10.88
2018-12-08T15:52:05.925Z,15.35
2018-12-08T15:56:44.835Z,14.63
2018-12-08T16:01:23.696Z,17.87
2018-12-08T16:06:02.501Z,13.55
2018-12-08T16:10:41.224Z,21.27
2018-12-08T16:15:20.044Z,19.40
2018-12-08T16:19:58.856Z,15.88
2018-12-08T16:24:37.563Z,13.70
2018-12-08T16:29:16.428Z,14.40
2018-12-08T16:33:55.391Z,15.32
2018-12-08T16:38:34.382Z,16.52
2018-12-08T16:43:13.211Z,21.17
2018-12-08T16:47:52.137Z,18.20
2018-12-08T16:52:31.010Z,16.65
2018-12-08T16:57:09.871Z,21.73
2018-12-08T17:01:52.992Z,28.32
2018-12-08T17:06:31.743Z,22.73
2018-12-08T17:11:10.763Z,17.35
2018-12-08T17:15:49.687Z,16.87
2018-12-08T17:20:28.544Z,17.95
2018-12-08T17:25:07.711Z,13.48
2018-12-08T17:29:46.328Z,14.60
2018-12-08T17:34:25.209Z,15.43
2018-12-08T17:39:05.356Z,15.03
2018-12-08T17:43:44.083Z,17.80
2018-12-08T17:48:22.946Z,19.15
2018-12-08T17:53:01.760Z,15.00
2018-12-08T17:57:41.493Z,17.57
2018-12-08T18:02:20.385Z,15.68
2018-12-08T18:11:44.419Z,11.63
2018-12-08T18:16:23.237Z,12.47
2018-12-08T18:21:02.088Z,10.27
2018-12-08T18:25:40.879Z,13.30
2018-12-08T18:30:19.802Z,14.90
2018-12-08T18:34:58.500Z,9.68
2018-12-08T18:39:37.254Z,8.97
2018-12-08T18:44:15.948Z,7.83
2018-12-08T18:48:54.859Z,10.55
2018-12-08T18:53:33.789Z,10.25
2018-12-08T18:58:12.581Z,8.73
2018-12-08T19:02:51.299Z,7.80
2018-12-08T19:07:30.054Z,10.53
2018-12-08T19:12:08.754Z,4.20
2018-12-08T19:16:47.624Z,5.33
2018-12-08T19:21:26.601Z,5.47
2018-12-08T19:26:05.301Z,7.40
2018-12-08T19:30:44.124Z,2.80
2018-12-08T19:35:22.972Z,2.50
2018-12-08T19:40:01.720Z,3.08
2018-12-08T19:44:40.748Z,3.22
2018-12-08T19:49:19.463Z,4.22
2018-12-08T19:53:58.394Z,4.85
2018-12-08T19:58:37.208Z,3.12
2018-12-08T20:03:16.203Z,2.08
2018-12-08T20:07:55.112Z,2.70
2018-12-08T20:12:34.095Z,2.27
2018-12-08T20:17:13.880Z,2.10
2018-12-08T20:21:52.786Z,1.62
2018-12-08T20:26:31.953Z,4.42
2018-12-08T20:31:10.703Z,2.50
2018-12-08T20:35:49.466Z,3.08
2018-12-08T20:40:28.330Z,0.93
2018-12-08T20:45:07.275Z,0.95
2018-12-08T20:49:46.223Z,0.95
2018-12-08T20:54:24.875Z,1.30
2018-12-08T20:59:03.556Z,1.95
2018-12-08T21:03:42.482Z,1.10
2018-12-08T21:08:21.201Z,0.75
2018-12-08T21:13:00.219Z,1.05
2018-12-08T21:17:39.177Z,2.15
2018-12-08T21:22:18.411Z,1.62
2018-12-08T21:26:57.700Z,1.05
2018-12-08T21:31:36.408Z,0.90
2018-12-08T21:36:15.215Z,1.27
2018-12-08T21:40:54.724Z,0.70
2018-12-08T21:45:33.596Z,1.00
2018-12-08T21:50:12.436Z,0.75
2018-12-08T21:54:51.856Z,1.00
2018-12-08T21:59:30.688Z,1.25
2018-12-08T22:04:09.587Z,0.90
2018-12-08T22:08:48.533Z,0.72
2018-12-08T22:13:27.686Z,1.55
2018-12-08T22:18:06.295Z,1.95
2018-12-08T22:22:45.257Z,1.00
2018-12-08T22:27:24.131Z,4.37
2018-12-08T22:32:02.964Z,2.67
2018-12-08T22:36:41.655Z,2.62
2018-12-08T22:41:20.504Z,5.40
2018-12-08T22:45:59.247Z,5.85
2018-12-08T22:50:38.013Z,6.47
2018-12-08T22:55:16.726Z,4.92
2018-12-08T22:59:55.875Z,6.80
2018-12-08T23:04:34.675Z,6.50
2018-12-08T23:09:13.560Z,13.62
2018-12-08T23:13:52.396Z,8.55
2018-12-08T23:18:31.131Z,7.83
2018-12-08T23:23:10.036Z,11.73
2018-12-08T23:27:49.221Z,8.48
2018-12-08T23:32:27.991Z,11.70
2018-12-08T23:37:06.827Z,14.05
2018-12-08T23:41:45.495Z,7.70
2018-12-08T23:46:24.356Z,8.85
2018-12-08T23:51:03.116Z,9.10
2018-12-08T23:55:41.924Z,11.88
